sensor_id;sensor_type;location;lat;lon;timestamp;P1;durP1;ratioP1;P2;durP2;ratioP2
9799;SDS011;4939;52.00085300;4.17406100;2024-01-27T00:01:35;9.00;;;1.45;;
9799;SDS011;4939;52.00085300;4.17406100;2024-01-27T00:04:01;7.65;;;1.40;;
9799;SDS011;4939;52.00085300;4.17406100;2024-01-27T00:06:28;10.35;;;1.50;;
9799;SDS011;4939;52.00085300;4.17406100;2024-01-27T00:08:54;10.07;;;1.50;;
9799;SDS011;4939;52.00085300;4.17406100;2024-01-27T00:11:20;11.35;;;1.30;;
9799;SDS011;4939;52.00085300;4.17406100;2024-01-27T00:13:48;10.38;;;1.35;;
9799;SDS011;4939;52.00085300;4.17406100;2024-01-27T00:16:14;10.77;;;1.10;;
9799;SDS011;4939;52.00085300;4.17406100;2024-01-27T00:18:40;10.43;;;1.60;;
9799;SDS011;4939;52.00085300;4.17406100;2024-01-27T00:21:06;8.52;;;1.50;;
9799;SDS011;4939;52.00085300;4.17406100;2024-01-27T00:23:33;15.05;;;1.85;;
9799;SDS011;4939;52.00085300;4.17406100;2024-01-27T00:26:01;11.32;;;1.40;;
9799;SDS011;4939;52.00085300;4.17406100;2024-01-27T00:28:27;8.98;;;2.00;;
9799;SDS011;4939;52.00085300;4.17406100;2024-01-27T00:30:54;15.15;;;1.50;;
9799;SDS011;4939;52.00085300;4.17406100;2024-01-27T00:33:20;9.07;;;1.42;;
9799;SDS011;4939;52.00085300;4.17406100;2024-01-27T00:35:46;10.68;;;1.42;;
9799;SDS011;4939;52.00085300;4.17406100;2024-01-27T00:38:12;18.13;;;1.98;;
9799;SDS011;4939;52.00085300;4.17406100;2024-01-27T00:40:38;14.77;;;1.60;;
9799;SDS011;4939;52.00085300;4.17406100;2024-01-27T00:43:04;17.35;;;2.40;;
9799;SDS011;4939;52.00085300;4.17406100;2024-01-27T00:45:30;18.15;;;1.95;;
9799;SDS011;4939;52.00085300;4.17406100;2024-01-27T00:47:57;6.97;;;1.55;;
9799;SDS011;4939;52.00085300;4.17406100;2024-01-27T00:50:23;11.95;;;1.48;;
9799;SDS011;4939;52.00085300;4.17406100;2024-01-27T00:52:49;19.50;;;2.10;;
9799;SDS011;4939;52.00085300;4.17406100;2024-01-27T00:55:15;22.15;;;2.15;;
9799;SDS011;4939;52.00085300;4.17406100;2024-01-27T00:57:42;9.75;;;1.65;;
9799;SDS011;4939;52.00085300;4.17406100;2024-01-27T01:00:08;10.27;;;1.52;;
9799;SDS011;4939;52.00085300;4.17406100;2024-01-27T01:02:35;17.02;;;2.08;;
9799;SDS011;4939;52.00085300;4.17406100;2024-01-27T01:05:02;13.82;;;1.77;;
9799;SDS011;4939;52.00085300;4.17406100;2024-01-27T01:07:31;17.45;;;1.52;;
9799;SDS011;4939;52.00085300;4.17406100;2024-01-27T01:09:58;17.15;;;1.70;;
9799;SDS011;4939;52.00085300;4.17406100;2024-01-27T01:12:24;16.20;;;1.70;;
9799;SDS011;4939;52.00085300;4.17406100;2024-01-27T01:14:51;8.75;;;1.60;;
9799;SDS011;4939;52.00085300;4.17406100;2024-01-27T01:17:17;9.65;;;1.65;;
9799;SDS011;4939;52.00085300;4.17406100;2024-01-27T01:19:43;11.90;;;1.50;;
9799;SDS011;4939;52.00085300;4.17406100;2024-01-27T01:22:09;14.48;;;1.55;;
9799;SDS011;4939;52.00085300;4.17406100;2024-01-27T01:24:36;13.50;;;1.67;;
9799;SDS011;4939;52.00085300;4.17406100;2024-01-27T01:27:02;8.90;;;1.50;;
9799;SDS011;4939;52.00085300;4.17406100;2024-01-27T01:29:28;12.90;;;1.92;;
9799;SDS011;4939;52.00085300;4.17406100;2024-01-27T01:31:54;16.60;;;1.90;;
9799;SDS011;4939;52.00085300;4.17406100;2024-01-27T01:34:20;16.38;;;1.77;;
9799;SDS011;4939;52.00085300;4.17406100;2024-01-27T01:36:46;15.68;;;2.05;;
9799;SDS011;4939;52.00085300;4.17406100;2024-01-27T01:39:13;14.80;;;2.22;;
9799;SDS011;4939;52.00085300;4.17406100;2024-01-27T01:41:39;13.52;;;1.55;;
9799;SDS011;4939;52.00085300;4.17406100;2024-01-27T01:44:05;15.50;;;1.60;;
9799;SDS011;4939;52.00085300;4.17406100;2024-01-27T01:46:32;15.15;;;1.58;;
9799;SDS011;4939;52.00085300;4.17406100;2024-01-27T01:48:58;5.13;;;1.48;;
9799;SDS011;4939;52.00085300;4.17406100;2024-01-27T01:51:25;15.32;;;1.92;;
9799;SDS011;4939;52.00085300;4.17406100;2024-01-27T01:53:51;18.42;;;1.83;;
9799;SDS011;4939;52.00085300;4.17406100;2024-01-27T01:56:17;23.95;;;2.65;;
9799;SDS011;4939;52.00085300;4.17406100;2024-01-27T01:58:44;11.57;;;1.85;;
9799;SDS011;4939;52.00085300;4.17406100;2024-01-27T02:01:10;21.45;;;2.15;;
9799;SDS011;4939;52.00085300;4.17406100;2024-01-27T02:03:36;10.30;;;1.35;;
9799;SDS011;4939;52.00085300;4.17406100;2024-01-27T02:06:02;8.98;;;1.60;;
9799;SDS011;4939;52.00085300;4.17406100;2024-01-27T02:08:28;9.13;;;1.70;;
9799;SDS011;4939;52.00085300;4.17406100;2024-01-27T02:10:54;13.30;;;2.03;;
9799;SDS011;4939;52.00085300;4.17406100;2024-01-27T02:13:21;15.25;;;2.08;;
9799;SDS011;4939;52.00085300;4.17406100;2024-01-27T02:15:48;12.23;;;1.77;;
9799;SDS011;4939;52.00085300;4.17406100;2024-01-27T02:18:14;12.90;;;1.92;;
9799;SDS011;4939;52.00085300;4.17406100;2024-01-27T02:20:41;17.80;;;2.50;;
9799;SDS011;4939;52.00085300;4.17406100;2024-01-27T02:23:07;15.35;;;2.20;;
9799;SDS011;4939;52.00085300;4.17406100;2024-01-27T02:25:33;14.68;;;1.90;;
9799;SDS011;4939;52.00085300;4.17406100;2024-01-27T02:28:00;13.45;;;1.80;;
9799;SDS011;4939;52.00085300;4.17406100;2024-01-27T02:30:28;21.33;;;2.33;;
9799;SDS011;4939;52.00085300;4.17406100;2024-01-27T02:32:55;21.60;;;2.47;;
9799;SDS011;4939;52.00085300;4.17406100;2024-01-27T02:35:21;7.03;;;1.67;;
9799;SDS011;4939;52.00085300;4.17406100;2024-01-27T02:37:47;10.02;;;1.85;;
9799;SDS011;4939;52.00085300;4.17406100;2024-01-27T02:40:13;14.02;;;2.13;;
9799;SDS011;4939;52.00085300;4.17406100;2024-01-27T02:42:39;11.80;;;1.75;;
9799;SDS011;4939;52.00085300;4.17406100;2024-01-27T02:45:07;16.98;;;2.05;;
9799;SDS011;4939;52.00085300;4.17406100;2024-01-27T02:47:33;14.50;;;2.05;;
9799;SDS011;4939;52.00085300;4.17406100;2024-01-27T02:49:59;15.55;;;2.40;;
9799;SDS011;4939;52.00085300;4.17406100;2024-01-27T02:52:25;13.95;;;2.75;;
9799;SDS011;4939;52.00085300;4.17406100;2024-01-27T02:54:52;19.98;;;2.97;;
9799;SDS011;4939;52.00085300;4.17406100;2024-01-27T02:57:18;16.55;;;3.33;;
9799;SDS011;4939;52.00085300;4.17406100;2024-01-27T02:59:48;25.15;;;2.88;;
9799;SDS011;4939;52.00085300;4.17406100;2024-01-27T03:02:14;22.08;;;3.15;;
9799;SDS011;4939;52.00085300;4.17406100;2024-01-27T03:04:41;17.38;;;2.97;;
9799;SDS011;4939;52.00085300;4.17406100;2024-01-27T03:07:07;12.98;;;3.22;;
9799;SDS011;4939;52.00085300;4.17406100;2024-01-27T03:09:33;12.27;;;2.50;;
9799;SDS011;4939;52.00085300;4.17406100;2024-01-27T03:11:59;15.93;;;3.28;;
9799;SDS011;4939;52.00085300;4.17406100;2024-01-27T03:14:25;19.67;;;3.33;;
9799;SDS011;4939;52.00085300;4.17406100;2024-01-27T03:16:51;20.00;;;3.58;;
9799;SDS011;4939;52.00085300;4.17406100;2024-01-27T03:19:18;15.75;;;3.40;;
9799;SDS011;4939;52.00085300;4.17406100;2024-01-27T03:21:44;17.00;;;3.35;;
9799;SDS011;4939;52.00085300;4.17406100;2024-01-27T03:24:10;23.88;;;3.28;;
9799;SDS011;4939;52.00085300;4.17406100;2024-01-27T03:26:36;18.90;;;3.58;;
9799;SDS011;4939;52.00085300;4.17406100;2024-01-27T03:29:02;16.95;;;3.38;;
9799;SDS011;4939;52.00085300;4.17406100;2024-01-27T03:31:31;19.25;;;4.15;;
9799;SDS011;4939;52.00085300;4.17406100;2024-01-27T03:33:58;16.02;;;3.42;;
9799;SDS011;4939;52.00085300;4.17406100;2024-01-27T03:36:24;14.10;;;3.42;;
9799;SDS011;4939;52.00085300;4.17406100;2024-01-27T03:38:51;19.05;;;3.75;;
9799;SDS011;4939;52.00085300;4.17406100;2024-01-27T03:41:17;14.65;;;3.50;;
9799;SDS011;4939;52.00085300;4.17406100;2024-01-27T03:43:43;20.60;;;4.40;;
9799;SDS011;4939;52.00085300;4.17406100;2024-01-27T03:46:09;19.52;;;3.83;;
9799;SDS011;4939;52.00085300;4.17406100;2024-01-27T03:48:35;16.85;;;3.30;;
9799;SDS011;4939;52.00085300;4.17406100;2024-01-27T03:51:01;18.70;;;4.15;;
9799;SDS011;4939;52.00085300;4.17406100;2024-01-27T03:53:27;25.83;;;4.22;;
9799;SDS011;4939;52.00085300;4.17406100;2024-01-27T03:55:53;16.20;;;3.95;;
9799;SDS011;4939;52.00085300;4.17406100;2024-01-27T03:58:20;13.70;;;2.92;;
9799;SDS011;4939;52.00085300;4.17406100;2024-01-27T04:00:46;14.73;;;3.35;;
9799;SDS011;4939;52.00085300;4.17406100;2024-01-27T04:03:12;16.30;;;3.55;;
9799;SDS011;4939;52.00085300;4.17406100;2024-01-27T04:05:38;15.63;;;3.70;;
9799;SDS011;4939;52.00085300;4.17406100;2024-01-27T04:08:04;20.60;;;3.47;;
9799;SDS011;4939;52.00085300;4.17406100;2024-01-27T04:10:31;16.55;;;3.17;;
9799;SDS011;4939;52.00085300;4.17406100;2024-01-27T04:12:57;13.82;;;4.03;;
9799;SDS011;4939;52.00085300;4.17406100;2024-01-27T04:15:23;22.55;;;3.53;;
9799;SDS011;4939;52.00085300;4.17406100;2024-01-27T04:17:49;15.55;;;3.63;;
9799;SDS011;4939;52.00085300;4.17406100;2024-01-27T04:20:15;14.95;;;4.80;;
9799;SDS011;4939;52.00085300;4.17406100;2024-01-27T04:22:41;15.02;;;3.60;;
9799;SDS011;4939;52.00085300;4.17406100;2024-01-27T04:25:08;21.83;;;3.40;;
9799;SDS011;4939;52.00085300;4.17406100;2024-01-27T04:27:37;13.95;;;3.80;;
9799;SDS011;4939;52.00085300;4.17406100;2024-01-27T04:30:07;14.10;;;3.30;;
9799;SDS011;4939;52.00085300;4.17406100;2024-01-27T04:32:33;18.92;;;4.47;;
9799;SDS011;4939;52.00085300;4.17406100;2024-01-27T04:35:00;20.48;;;4.20;;
9799;SDS011;4939;52.00085300;4.17406100;2024-01-27T04:37:26;16.60;;;4.90;;
9799;SDS011;4939;52.00085300;4.17406100;2024-01-27T04:39:52;18.90;;;5.10;;
9799;SDS011;4939;52.00085300;4.17406100;2024-01-27T04:42:18;17.48;;;4.95;;
9799;SDS011;4939;52.00085300;4.17406100;2024-01-27T04:44:44;20.80;;;4.85;;
9799;SDS011;4939;52.00085300;4.17406100;2024-01-27T04:47:10;17.17;;;4.90;;
9799;SDS011;4939;52.00085300;4.17406100;2024-01-27T04:49:36;15.82;;;4.97;;
9799;SDS011;4939;52.00085300;4.17406100;2024-01-27T04:52:02;17.45;;;4.80;;
9799;SDS011;4939;52.00085300;4.17406100;2024-01-27T04:54:28;18.33;;;4.68;;
9799;SDS011;4939;52.00085300;4.17406100;2024-01-27T04:56:54;24.15;;;5.15;;
9799;SDS011;4939;52.00085300;4.17406100;2024-01-27T04:59:20;24.70;;;5.35;;
9799;SDS011;4939;52.00085300;4.17406100;2024-01-27T05:01:46;18.52;;;4.95;;
9799;SDS011;4939;52.00085300;4.17406100;2024-01-27T05:04:12;15.07;;;4.53;;
9799;SDS011;4939;52.00085300;4.17406100;2024-01-27T05:06:43;17.45;;;4.47;;
9799;SDS011;4939;52.00085300;4.17406100;2024-01-27T05:09:10;15.02;;;4.90;;
9799;SDS011;4939;52.00085300;4.17406100;2024-01-27T05:11:37;19.42;;;4.13;;
9799;SDS011;4939;52.00085300;4.17406100;2024-01-27T05:14:03;12.93;;;3.90;;
9799;SDS011;4939;52.00085300;4.17406100;2024-01-27T05:16:29;17.58;;;4.43;;
9799;SDS011;4939;52.00085300;4.17406100;2024-01-27T05:18:57;13.30;;;3.90;;
9799;SDS011;4939;52.00085300;4.17406100;2024-01-27T05:21:23;18.25;;;4.50;;
9799;SDS011;4939;52.00085300;4.17406100;2024-01-27T05:23:49;13.93;;;4.15;;
9799;SDS011;4939;52.00085300;4.17406100;2024-01-27T05:26:15;17.67;;;4.55;;
9799;SDS011;4939;52.00085300;4.17406100;2024-01-27T05:28:41;11.90;;;3.90;;
9799;SDS011;4939;52.00085300;4.17406100;2024-01-27T05:31:07;13.10;;;3.72;;
9799;SDS011;4939;52.00085300;4.17406100;2024-01-27T05:33:34;13.10;;;4.22;;
9799;SDS011;4939;52.00085300;4.17406100;2024-01-27T05:36:00;16.83;;;4.47;;
9799;SDS011;4939;52.00085300;4.17406100;2024-01-27T05:38:26;16.70;;;3.97;;
9799;SDS011;4939;52.00085300;4.17406100;2024-01-27T05:40:55;17.90;;;3.95;;
9799;SDS011;4939;52.00085300;4.17406100;2024-01-27T05:43:21;11.63;;;3.97;;
9799;SDS011;4939;52.00085300;4.17406100;2024-01-27T05:45:47;22.42;;;4.47;;
9799;SDS011;4939;52.00085300;4.17406100;2024-01-27T05:48:14;18.75;;;4.00;;
9799;SDS011;4939;52.00085300;4.17406100;2024-01-27T05:50:41;19.30;;;4.00;;
9799;SDS011;4939;52.00085300;4.17406100;2024-01-27T05:53:08;15.05;;;3.88;;
9799;SDS011;4939;52.00085300;4.17406100;2024-01-27T05:55:34;15.20;;;4.05;;
9799;SDS011;4939;52.00085300;4.17406100;2024-01-27T05:58:00;20.10;;;4.40;;
9799;SDS011;4939;52.00085300;4.17406100;2024-01-27T06:00:26;13.95;;;4.03;;
9799;SDS011;4939;52.00085300;4.17406100;2024-01-27T06:02:52;20.90;;;4.13;;
9799;SDS011;4939;52.00085300;4.17406100;2024-01-27T06:05:19;11.55;;;3.95;;
9799;SDS011;4939;52.00085300;4.17406100;2024-01-27T06:07:45;18.42;;;4.55;;
9799;SDS011;4939;52.00085300;4.17406100;2024-01-27T06:10:13;19.77;;;4.55;;
9799;SDS011;4939;52.00085300;4.17406100;2024-01-27T06:12:39;23.58;;;4.40;;
9799;SDS011;4939;52.00085300;4.17406100;2024-01-27T06:15:05;16.02;;;3.97;;
9799;SDS011;4939;52.00085300;4.17406100;2024-01-27T06:17:33;13.45;;;4.60;;
9799;SDS011;4939;52.00085300;4.17406100;2024-01-27T06:19:59;17.75;;;3.90;;
9799;SDS011;4939;52.00085300;4.17406100;2024-01-27T06:22:25;17.70;;;5.05;;
9799;SDS011;4939;52.00085300;4.17406100;2024-01-27T06:24:52;16.88;;;5.82;;
9799;SDS011;4939;52.00085300;4.17406100;2024-01-27T06:27:18;16.15;;;5.65;;
9799;SDS011;4939;52.00085300;4.17406100;2024-01-27T06:29:44;16.20;;;5.93;;
9799;SDS011;4939;52.00085300;4.17406100;2024-01-27T06:32:10;17.95;;;5.97;;
9799;SDS011;4939;52.00085300;4.17406100;2024-01-27T06:34:36;21.73;;;6.10;;
9799;SDS011;4939;52.00085300;4.17406100;2024-01-27T06:37:02;24.73;;;6.60;;
9799;SDS011;4939;52.00085300;4.17406100;2024-01-27T06:39:29;18.92;;;6.20;;
9799;SDS011;4939;52.00085300;4.17406100;2024-01-27T06:41:55;16.80;;;5.88;;
9799;SDS011;4939;52.00085300;4.17406100;2024-01-27T06:44:21;20.85;;;5.97;;
9799;SDS011;4939;52.00085300;4.17406100;2024-01-27T06:46:47;18.88;;;6.07;;
9799;SDS011;4939;52.00085300;4.17406100;2024-01-27T06:49:15;19.70;;;6.45;;
9799;SDS011;4939;52.00085300;4.17406100;2024-01-27T06:51:41;19.45;;;6.30;;
9799;SDS011;4939;52.00085300;4.17406100;2024-01-27T06:54:07;18.88;;;5.97;;
9799;SDS011;4939;52.00085300;4.17406100;2024-01-27T06:56:33;19.38;;;5.65;;
9799;SDS011;4939;52.00085300;4.17406100;2024-01-27T06:58:59;22.80;;;6.22;;
9799;SDS011;4939;52.00085300;4.17406100;2024-01-27T07:01:26;23.33;;;6.30;;
9799;SDS011;4939;52.00085300;4.17406100;2024-01-27T07:03:52;24.85;;;5.80;;
9799;SDS011;4939;52.00085300;4.17406100;2024-01-27T07:06:18;18.45;;;6.07;;
9799;SDS011;4939;52.00085300;4.17406100;2024-01-27T07:08:44;18.55;;;6.07;;
9799;SDS011;4939;52.00085300;4.17406100;2024-01-27T07:11:10;14.35;;;6.28;;
9799;SDS011;4939;52.00085300;4.17406100;2024-01-27T07:13:37;21.80;;;5.85;;
9799;SDS011;4939;52.00085300;4.17406100;2024-01-27T07:16:04;24.70;;;6.50;;
9799;SDS011;4939;52.00085300;4.17406100;2024-01-27T07:18:30;22.33;;;6.53;;
9799;SDS011;4939;52.00085300;4.17406100;2024-01-27T07:20:56;25.05;;;6.88;;
9799;SDS011;4939;52.00085300;4.17406100;2024-01-27T07:23:24;16.33;;;6.57;;
9799;SDS011;4939;52.00085300;4.17406100;2024-01-27T07:25:50;18.27;;;6.32;;
9799;SDS011;4939;52.00085300;4.17406100;2024-01-27T07:28:16;21.05;;;6.18;;
9799;SDS011;4939;52.00085300;4.17406100;2024-01-27T07:30:43;27.27;;;6.60;;
9799;SDS011;4939;52.00085300;4.17406100;2024-01-27T07:33:09;20.58;;;6.00;;
9799;SDS011;4939;52.00085300;4.17406100;2024-01-27T07:35:36;24.17;;;6.68;;
9799;SDS011;4939;52.00085300;4.17406100;2024-01-27T07:38:02;24.80;;;6.95;;
9799;SDS011;4939;52.00085300;4.17406100;2024-01-27T07:40:28;20.98;;;6.40;;
9799;SDS011;4939;52.00085300;4.17406100;2024-01-27T07:42:54;23.00;;;6.40;;
9799;SDS011;4939;52.00085300;4.17406100;2024-01-27T07:45:20;23.10;;;6.63;;
9799;SDS011;4939;52.00085300;4.17406100;2024-01-27T07:47:46;20.08;;;5.80;;
9799;SDS011;4939;52.00085300;4.17406100;2024-01-27T07:50:12;21.95;;;6.85;;
9799;SDS011;4939;52.00085300;4.17406100;2024-01-27T07:52:38;23.77;;;6.60;;
9799;SDS011;4939;52.00085300;4.17406100;2024-01-27T07:55:04;20.77;;;7.40;;
9799;SDS011;4939;52.00085300;4.17406100;2024-01-27T07:57:31;19.55;;;6.70;;
9799;SDS011;4939;52.00085300;4.17406100;2024-01-27T07:59:57;22.33;;;7.30;;
9799;SDS011;4939;52.00085300;4.17406100;2024-01-27T08:02:23;19.27;;;7.55;;
9799;SDS011;4939;52.00085300;4.17406100;2024-01-27T08:04:51;19.45;;;7.65;;
9799;SDS011;4939;52.00085300;4.17406100;2024-01-27T08:07:17;26.80;;;8.07;;
9799;SDS011;4939;52.00085300;4.17406100;2024-01-27T08:09:43;21.23;;;7.07;;
9799;SDS011;4939;52.00085300;4.17406100;2024-01-27T08:12:09;20.60;;;7.40;;
9799;SDS011;4939;52.00085300;4.17406100;2024-01-27T08:14:37;29.05;;;8.68;;
9799;SDS011;4939;52.00085300;4.17406100;2024-01-27T08:17:03;20.90;;;7.70;;
9799;SDS011;4939;52.00085300;4.17406100;2024-01-27T08:19:29;25.35;;;8.35;;
9799;SDS011;4939;52.00085300;4.17406100;2024-01-27T08:21:56;25.58;;;8.07;;
9799;SDS011;4939;52.00085300;4.17406100;2024-01-27T08:24:22;20.73;;;7.55;;
9799;SDS011;4939;52.00085300;4.17406100;2024-01-27T08:26:49;20.88;;;7.80;;
9799;SDS011;4939;52.00085300;4.17406100;2024-01-27T08:29:15;23.85;;;8.13;;
9799;SDS011;4939;52.00085300;4.17406100;2024-01-27T08:31:41;20.33;;;7.30;;
9799;SDS011;4939;52.00085300;4.17406100;2024-01-27T08:34:08;18.42;;;7.10;;
9799;SDS011;4939;52.00085300;4.17406100;2024-01-27T08:36:37;22.58;;;7.38;;
9799;SDS011;4939;52.00085300;4.17406100;2024-01-27T08:39:03;24.88;;;7.65;;
9799;SDS011;4939;52.00085300;4.17406100;2024-01-27T08:41:32;22.23;;;7.45;;
9799;SDS011;4939;52.00085300;4.17406100;2024-01-27T08:43:58;21.98;;;7.70;;
9799;SDS011;4939;52.00085300;4.17406100;2024-01-27T08:46:24;24.52;;;8.52;;
9799;SDS011;4939;52.00085300;4.17406100;2024-01-27T08:48:50;20.00;;;8.10;;
9799;SDS011;4939;52.00085300;4.17406100;2024-01-27T08:51:16;21.60;;;8.10;;
9799;SDS011;4939;52.00085300;4.17406100;2024-01-27T08:53:46;22.52;;;8.32;;
9799;SDS011;4939;52.00085300;4.17406100;2024-01-27T08:56:17;25.52;;;8.82;;
9799;SDS011;4939;52.00085300;4.17406100;2024-01-27T08:58:43;22.13;;;8.27;;
9799;SDS011;4939;52.00085300;4.17406100;2024-01-27T09:01:09;25.77;;;7.57;;
9799;SDS011;4939;52.00085300;4.17406100;2024-01-27T09:03:38;22.63;;;7.65;;
9799;SDS011;4939;52.00085300;4.17406100;2024-01-27T09:06:04;21.33;;;7.88;;
9799;SDS011;4939;52.00085300;4.17406100;2024-01-27T09:08:30;25.92;;;7.38;;
9799;SDS011;4939;52.00085300;4.17406100;2024-01-27T09:10:56;20.70;;;7.97;;
9799;SDS011;4939;52.00085300;4.17406100;2024-01-27T09:13:22;25.95;;;9.50;;
9799;SDS011;4939;52.00085300;4.17406100;2024-01-27T09:15:48;19.38;;;7.57;;
9799;SDS011;4939;52.00085300;4.17406100;2024-01-27T09:18:14;21.27;;;8.13;;
9799;SDS011;4939;52.00085300;4.17406100;2024-01-27T09:20:42;19.27;;;7.25;;
9799;SDS011;4939;52.00085300;4.17406100;2024-01-27T09:23:08;20.83;;;8.10;;
9799;SDS011;4939;52.00085300;4.17406100;2024-01-27T09:25:34;18.65;;;7.82;;
9799;SDS011;4939;52.00085300;4.17406100;2024-01-27T09:28:00;16.15;;;7.40;;
9799;SDS011;4939;52.00085300;4.17406100;2024-01-27T09:30:26;27.33;;;7.90;;
9799;SDS011;4939;52.00085300;4.17406100;2024-01-27T09:32:52;22.02;;;7.85;;
9799;SDS011;4939;52.00085300;4.17406100;2024-01-27T09:35:18;20.60;;;8.38;;
9799;SDS011;4939;52.00085300;4.17406100;2024-01-27T09:37:45;19.75;;;6.65;;
9799;SDS011;4939;52.00085300;4.17406100;2024-01-27T09:40:11;17.75;;;6.60;;
9799;SDS011;4939;52.00085300;4.17406100;2024-01-27T09:42:37;19.88;;;7.22;;
9799;SDS011;4939;52.00085300;4.17406100;2024-01-27T09:45:06;22.63;;;6.85;;
9799;SDS011;4939;52.00085300;4.17406100;2024-01-27T09:47:34;15.05;;;6.03;;
9799;SDS011;4939;52.00085300;4.17406100;2024-01-27T09:50:01;11.45;;;5.15;;
9799;SDS011;4939;52.00085300;4.17406100;2024-01-27T09:52:27;24.45;;;6.30;;
9799;SDS011;4939;52.00085300;4.17406100;2024-01-27T09:54:53;15.77;;;5.93;;
9799;SDS011;4939;52.00085300;4.17406100;2024-01-27T09:57:19;18.67;;;6.55;;
9799;SDS011;4939;52.00085300;4.17406100;2024-01-27T09:59:46;21.65;;;6.47;;
9799;SDS011;4939;52.00085300;4.17406100;2024-01-27T10:02:14;14.43;;;5.78;;
9799;SDS011;4939;52.00085300;4.17406100;2024-01-27T10:04:42;19.40;;;4.72;;
9799;SDS011;4939;52.00085300;4.17406100;2024-01-27T10:07:08;16.20;;;4.75;;
9799;SDS011;4939;52.00085300;4.17406100;2024-01-27T10:09:34;17.73;;;4.22;;
9799;SDS011;4939;52.00085300;4.17406100;2024-01-27T10:12:01;14.27;;;4.80;;
9799;SDS011;4939;52.00085300;4.17406100;2024-01-27T10:17:05;16.83;;;4.20;;
9799;SDS011;4939;52.00085300;4.17406100;2024-01-27T10:19:31;12.27;;;3.83;;
9799;SDS011;4939;52.00085300;4.17406100;2024-01-27T10:22:00;19.33;;;4.60;;
9799;SDS011;4939;52.00085300;4.17406100;2024-01-27T10:24:31;17.38;;;4.57;;
9799;SDS011;4939;52.00085300;4.17406100;2024-01-27T10:27:01;14.65;;;4.05;;
9799;SDS011;4939;52.00085300;4.17406100;2024-01-27T10:29:28;12.45;;;3.83;;
9799;SDS011;4939;52.00085300;4.17406100;2024-01-27T10:31:54;12.80;;;3.65;;
9799;SDS011;4939;52.00085300;4.17406100;2024-01-27T10:34:20;12.10;;;3.92;;
9799;SDS011;4939;52.00085300;4.17406100;2024-01-27T10:36:46;14.88;;;3.63;;
9799;SDS011;4939;52.00085300;4.17406100;2024-01-27T10:41:48;12.02;;;3.25;;
9799;SDS011;4939;52.00085300;4.17406100;2024-01-27T10:44:14;11.80;;;3.15;;
9799;SDS011;4939;52.00085300;4.17406100;2024-01-27T10:46:42;14.70;;;4.00;;
9799;SDS011;4939;52.00085300;4.17406100;2024-01-27T10:49:11;12.80;;;4.03;;
9799;SDS011;4939;52.00085300;4.17406100;2024-01-27T10:51:40;15.40;;;3.88;;
9799;SDS011;4939;52.00085300;4.17406100;2024-01-27T10:54:18;16.50;;;3.53;;
9799;SDS011;4939;52.00085300;4.17406100;2024-01-27T10:56:50;11.20;;;3.67;;
9799;SDS011;4939;52.00085300;4.17406100;2024-01-27T10:59:18;13.60;;;4.03;;
9799;SDS011;4939;52.00085300;4.17406100;2024-01-27T11:01:46;11.77;;;3.22;;
9799;SDS011;4939;52.00085300;4.17406100;2024-01-27T11:04:12;14.73;;;4.07;;
9799;SDS011;4939;52.00085300;4.17406100;2024-01-27T11:06:39;17.65;;;4.07;;
9799;SDS011;4939;52.00085300;4.17406100;2024-01-27T11:09:05;10.80;;;4.18;;
9799;SDS011;4939;52.00085300;4.17406100;2024-01-27T11:11:33;16.27;;;4.00;;
9799;SDS011;4939;52.00085300;4.17406100;2024-01-27T11:13:59;10.88;;;3.92;;
9799;SDS011;4939;52.00085300;4.17406100;2024-01-27T11:16:25;24.20;;;5.47;;
9799;SDS011;4939;52.00085300;4.17406100;2024-01-27T11:18:53;17.50;;;5.07;;
9799;SDS011;4939;52.00085300;4.17406100;2024-01-27T11:21:19;12.98;;;4.53;;
9799;SDS011;4939;52.00085300;4.17406100;2024-01-27T11:23:45;13.93;;;4.85;;
9799;SDS011;4939;52.00085300;4.17406100;2024-01-27T11:26:17;9.70;;;3.90;;
9799;SDS011;4939;52.00085300;4.17406100;2024-01-27T11:28:45;12.50;;;3.80;;
9799;SDS011;4939;52.00085300;4.17406100;2024-01-27T11:31:11;14.52;;;5.00;;
9799;SDS011;4939;52.00085300;4.17406100;2024-01-27T11:33:43;14.43;;;4.60;;
9799;SDS011;4939;52.00085300;4.17406100;2024-01-27T11:36:18;15.75;;;4.70;;
9799;SDS011;4939;52.00085300;4.17406100;2024-01-27T11:38:46;12.55;;;3.33;;
9799;SDS011;4939;52.00085300;4.17406100;2024-01-27T11:41:13;19.63;;;4.80;;
9799;SDS011;4939;52.00085300;4.17406100;2024-01-27T11:43:39;14.50;;;3.92;;
9799;SDS011;4939;52.00085300;4.17406100;2024-01-27T11:46:05;12.75;;;4.15;;
9799;SDS011;4939;52.00085300;4.17406100;2024-01-27T11:48:31;11.05;;;3.92;;
9799;SDS011;4939;52.00085300;4.17406100;2024-01-27T11:51:05;16.48;;;4.43;;
9799;SDS011;4939;52.00085300;4.17406100;2024-01-27T11:53:35;15.25;;;3.72;;
9799;SDS011;4939;52.00085300;4.17406100;2024-01-27T11:56:02;14.50;;;3.80;;
9799;SDS011;4939;52.00085300;4.17406100;2024-01-27T11:58:28;13.30;;;3.30;;
9799;SDS011;4939;52.00085300;4.17406100;2024-01-27T12:00:55;17.42;;;4.57;;
9799;SDS011;4939;52.00085300;4.17406100;2024-01-27T12:03:21;19.67;;;4.43;;
9799;SDS011;4939;52.00085300;4.17406100;2024-01-27T12:05:48;20.30;;;4.25;;
9799;SDS011;4939;52.00085300;4.17406100;2024-01-27T12:08:14;20.48;;;3.78;;
9799;SDS011;4939;52.00085300;4.17406100;2024-01-27T12:10:40;18.23;;;3.90;;
9799;SDS011;4939;52.00085300;4.17406100;2024-01-27T12:13:06;19.88;;;3.75;;
9799;SDS011;4939;52.00085300;4.17406100;2024-01-27T12:15:32;10.55;;;2.60;;
9799;SDS011;4939;52.00085300;4.17406100;2024-01-27T12:17:58;10.07;;;2.70;;
9799;SDS011;4939;52.00085300;4.17406100;2024-01-27T12:20:24;16.15;;;2.80;;
9799;SDS011;4939;52.00085300;4.17406100;2024-01-27T12:22:50;12.73;;;2.58;;
9799;SDS011;4939;52.00085300;4.17406100;2024-01-27T12:25:30;11.05;;;2.72;;
9799;SDS011;4939;52.00085300;4.17406100;2024-01-27T12:27:57;9.40;;;2.10;;
9799;SDS011;4939;52.00085300;4.17406100;2024-01-27T12:30:26;11.18;;;2.75;;
9799;SDS011;4939;52.00085300;4.17406100;2024-01-27T12:32:52;11.70;;;2.55;;
9799;SDS011;4939;52.00085300;4.17406100;2024-01-27T12:35:18;9.65;;;2.17;;
9799;SDS011;4939;52.00085300;4.17406100;2024-01-27T12:37:45;11.00;;;2.30;;
9799;SDS011;4939;52.00085300;4.17406100;2024-01-27T12:40:17;11.40;;;1.95;;
9799;SDS011;4939;52.00085300;4.17406100;2024-01-27T12:42:44;10.60;;;2.08;;
9799;SDS011;4939;52.00085300;4.17406100;2024-01-27T12:45:10;9.77;;;2.40;;
9799;SDS011;4939;52.00085300;4.17406100;2024-01-27T12:47:36;17.08;;;3.33;;
9799;SDS011;4939;52.00085300;4.17406100;2024-01-27T12:50:02;13.75;;;2.22;;
9799;SDS011;4939;52.00085300;4.17406100;2024-01-27T12:52:28;19.95;;;2.20;;
9799;SDS011;4939;52.00085300;4.17406100;2024-01-27T12:54:54;12.40;;;2.20;;
9799;SDS011;4939;52.00085300;4.17406100;2024-01-27T12:57:20;12.88;;;2.67;;
9799;SDS011;4939;52.00085300;4.17406100;2024-01-27T12:59:46;11.18;;;2.53;;
9799;SDS011;4939;52.00085300;4.17406100;2024-01-27T13:02:12;10.65;;;2.33;;
9799;SDS011;4939;52.00085300;4.17406100;2024-01-27T13:04:40;11.73;;;2.65;;